Time,TemperatureF,DewpointF,PressureIn,WindDirection,WindDirectionDegrees,WindSpeedMPH,WindSpeedGustMPH,Humidity,HourlyPrecipIn,Conditions,Clouds,dailyrainin,SoftwareType,DateUTC
2013-01-18 00:02:00,37.0,33.0,30.29,NNE,20,0.0,0.0,85,0.00,,,0.00,,2013-01-18 08:02:00,
2013-01-18 00:33:00,36.0,32.0,30.29,NNE,20,0.0,1.0,86,0.00,,,0.00,,2013-01-18 08:33:00,
2013-01-18 00:42:00,36.0,32.0,30.29,NNE,20,0.0,1.0,86,0.00,,,0.00,,2013-01-18 08:42:00,
2013-01-18 00:53:00,36.0,32.0,30.29,NNE,20,0.0,1.0,86,0.00,,,0.00,,2013-01-18 08:53:00,
2013-01-18 01:02:00,36.0,32.0,30.29,NNE,20,0.0,1.0,86,0.00,,,0.00,,2013-01-18 09:02:00,
2013-01-18 01:33:00,35.0,32.0,30.29,NNE,20,0.0,0.0,87,0.00,,,0.00,,2013-01-18 09:33:00,
2013-01-18 01:42:00,35.0,32.0,30.29,NNE,20,0.0,0.0,87,0.00,,,0.00,,2013-01-18 09:42:00,
2013-01-18 01:52:00,35.0,32.0,30.29,NNE,20,0.0,0.0,87,0.00,,,0.00,,2013-01-18 09:52:00,
2013-01-18 02:02:00,35.0,32.0,30.29,NNE,20,0.0,0.0,87,0.00,,,0.00,,2013-01-18 10:02:00,
2013-01-18 02:33:00,34.0,31.0,30.29,NNE,20,0.0,1.0,88,0.00,,,0.00,,2013-01-18 10:33:00,
2013-01-18 02:43:00,34.0,31.0,30.29,NNE,20,0.0,1.0,88,0.00,,,0.00,,2013-01-18 10:43:00,
2013-01-18 02:52:00,34.0,31.0,30.29,NNE,20,0.0,1.0,88,0.00,,,0.00,,2013-01-18 10:52:00,
2013-01-18 03:02:00,34.0,31.0,30.29,NNE,20,0.0,1.0,88,0.00,,,0.00,,2013-01-18 11:02:00,
2013-01-18 03:33:00,33.0,30.0,30.28,NNE,20,0.0,0.0,88,0.00,,,0.00,,2013-01-18 11:33:00,
2013-01-18 03:42:00,33.0,30.0,30.28,NNE,20,0.0,0.0,88,0.00,,,0.00,,2013-01-18 11:42:00,
2013-01-18 03:53:00,33.0,30.0,30.28,NNE,20,0.0,0.0,88,0.00,,,0.00,,2013-01-18 11:53:00,
2013-01-18 04:02:00,33.0,30.0,30.28,NNE,20,0.0,0.0,88,0.00,,,0.00,,2013-01-18 12:02:00,
2013-01-18 04:33:00,33.0,30.0,30.27,NNE,20,0.0,0.0,87,0.00,,,0.00,,2013-01-18 12:33:00,
2013-01-18 04:43:00,33.0,30.0,30.27,NNE,20,0.0,0.0,87,0.00,,,0.00,,2013-01-18 12:43:00,
2013-01-18 04:53:00,33.0,30.0,30.27,NNE,20,0.0,0.0,87,0.00,,,0.00,,2013-01-18 12:53:00,
2013-01-18 05:02:00,33.0,30.0,30.27,NNE,20,0.0,0.0,87,0.00,,,0.00,,2013-01-18 13:02:00,
2013-01-18 05:33:00,32.0,29.0,30.28,NNE,20,0.0,1.0,88,0.00,,,0.00,,2013-01-18 13:33:00,
2013-01-18 05:43:00,32.0,29.0,30.28,NNE,20,0.0,1.0,88,0.00,,,0.00,,2013-01-18 13:43:00,
2013-01-18 05:53:00,32.0,29.0,30.28,NNE,20,0.0,1.0,88,0.00,,,0.00,,2013-01-18 13:53:00,
2013-01-18 06:03:00,32.0,29.0,30.28,NNE,20,0.0,1.0,88,0.00,,,0.00,,2013-01-18 14:03:00,
2013-01-18 06:34:00,32.0,29.0,30.28,NNE,20,0.0,0.0,88,0.00,,,0.00,,2013-01-18 14:34:00,
2013-01-18 06:43:00,32.0,29.0,30.28,NNE,20,0.0,0.0,88,0.00,,,0.00,,2013-01-18 14:43:00,
2013-01-18 06:53:00,32.0,29.0,30.28,NNE,20,0.0,0.0,88,0.00,,,0.00,,2013-01-18 14:53:00,
2013-01-18 07:02:00,32.0,29.0,30.28,NNE,20,0.0,0.0,88,0.00,,,0.00,,2013-01-18 15:02:00,
2013-01-18 07:34:00,31.0,28.0,30.29,NNE,20,0.0,0.0,88,0.00,,,0.00,,2013-01-18 15:34:00,
2013-01-18 07:43:00,31.0,28.0,30.29,NNE,20,0.0,0.0,88,0.00,,,0.00,,2013-01-18 15:43:00,
2013-01-18 07:53:00,31.0,28.0,30.29,NNE,20,0.0,0.0,88,0.00,,,0.00,,2013-01-18 15:53:00,
2013-01-18 08:02:00,31.0,28.0,30.29,NNE,20,0.0,0.0,88,0.00,,,0.00,,2013-01-18 16:02:00,
2013-01-18 08:33:00,31.0,28.0,30.31,NNE,20,0.0,0.0,88,0.00,,,0.00,,2013-01-18 16:33:00,
2013-01-18 08:43:00,31.0,28.0,30.31,NNE,20,0.0,0.0,88,0.00,,,0.00,,2013-01-18 16:43:00,
2013-01-18 08:53:00,31.0,28.0,30.31,NNE,20,0.0,0.0,88,0.00,,,0.00,,2013-01-18 16:53:00,
2013-01-18 09:02:00,31.0,28.0,30.31,NNE,20,0.0,0.0,88,0.00,,,0.00,,2013-01-18 17:02:00,
2013-01-18 09:34:00,36.0,33.0,30.32,NNE,20,0.0,1.0,87,0.01,,,0.01,,2013-01-18 17:34:00,
2013-01-18 09:43:00,36.0,33.0,30.32,NNE,20,0.0,1.0,87,0.01,,,0.01,,2013-01-18 17:43:00,
2013-01-18 09:53:00,36.0,33.0,30.32,NNE,20,0.0,1.0,87,0.01,,,0.01,,2013-01-18 17:53:00,
2013-01-18 10:03:00,36.0,33.0,30.32,NNE,20,0.0,1.0,87,0.01,,,0.01,,2013-01-18 18:03:00,
2013-01-18 10:33:00,42.0,36.0,30.34,NNE,20,0.0,0.0,80,0.00,,,0.01,,2013-01-18 18:33:00,
2013-01-18 10:43:00,42.0,36.0,30.34,NNE,20,0.0,0.0,80,0.00,,,0.01,,2013-01-18 18:43:00,
2013-01-18 10:53:00,42.0,36.0,30.34,NNE,20,0.0,0.0,80,0.00,,,0.01,,2013-01-18 18:53:00,
2013-01-18 11:02:00,42.0,36.0,30.34,NNE,20,0.0,0.0,80,0.00,,,0.01,,2013-01-18 19:02:00,
2013-01-18 11:33:00,50.0,42.0,30.33,NNE,20,0.0,1.0,73,0.00,,,0.01,,2013-01-18 19:33:00,
2013-01-18 12:33:00,49.0,41.0,30.30,NNE,17,1.0,3.0,75,0.00,,,0.01,,2013-01-18 20:33:00,
2013-01-18 12:43:00,49.0,41.0,30.30,NNE,17,1.0,3.0,75,0.00,,,0.01,,2013-01-18 20:43:00,
2013-01-18 12:53:00,49.0,41.0,30.30,NNE,17,1.0,3.0,75,0.00,,,0.01,,2013-01-18 20:53:00,
2013-01-18 13:02:00,49.0,41.0,30.30,NNE,17,1.0,3.0,75,0.00,,,0.01,,2013-01-18 21:02:00,
2013-01-18 13:33:00,48.0,42.0,30.29,NNE,15,2.0,4.0,81,0.00,,,0.01,,2013-01-18 21:33:00,
2013-01-18 13:43:00,48.0,42.0,30.29,NNE,15,2.0,4.0,81,0.00,,,0.01,,2013-01-18 21:43:00,
2013-01-18 13:53:00,48.0,42.0,30.29,NNE,15,2.0,4.0,81,0.00,,,0.01,,2013-01-18 21:53:00,
2013-01-18 14:02:00,48.0,42.0,30.29,NNE,15,2.0,4.0,81,0.00,,,0.01,,2013-01-18 22:02:00,
2013-01-18 14:33:00,48.0,43.0,30.28,North,9,1.0,3.0,82,0.00,,,0.01,,2013-01-18 22:33:00,
2013-01-18 14:43:00,48.0,43.0,30.28,North,9,1.0,3.0,82,0.00,,,0.01,,2013-01-18 22:43:00,
2013-01-18 14:53:00,48.0,43.0,30.28,North,9,1.0,3.0,82,0.00,,,0.01,,2013-01-18 22:53:00,
2013-01-18 15:02:00,48.0,43.0,30.28,North,9,1.0,3.0,82,0.00,,,0.01,,2013-01-18 23:02:00,
2013-01-18 15:33:00,49.0,43.0,30.28,North,9,2.0,4.0,81,0.00,,,0.01,,2013-01-18 23:33:00,
2013-01-18 15:43:00,49.0,43.0,30.28,North,9,2.0,4.0,81,0.00,,,0.01,,2013-01-18 23:43:00,
2013-01-18 15:53:00,49.0,43.0,30.28,North,9,2.0,4.0,81,0.00,,,0.01,,2013-01-18 23:53:00,
2013-01-18 16:02:00,49.0,43.0,30.28,North,9,2.0,4.0,81,0.00,,,0.01,,2013-01-19 00:02:00,
2013-01-18 16:33:00,47.0,41.0,30.29,North,9,3.0,4.0,81,0.00,,,0.01,,2013-01-19 00:33:00,
2013-01-18 16:43:00,47.0,41.0,30.29,North,9,3.0,4.0,81,0.00,,,0.01,,2013-01-19 00:43:00,
2013-01-18 16:53:00,47.0,41.0,30.29,North,9,3.0,4.0,81,0.00,,,0.01,,2013-01-19 00:53:00,
2013-01-18 17:02:00,47.0,41.0,30.29,North,9,3.0,4.0,81,0.00,,,0.01,,2013-01-19 01:02:00,
2013-01-18 17:33:00,44.0,40.0,30.30,NW,316,1.0,2.0,86,-99.99,,,-99.99,,2013-01-19 01:33:00,
2013-01-18 17:43:00,44.0,40.0,30.30,NW,316,1.0,2.0,86,-99.99,,,-99.99,,2013-01-19 01:43:00,
2013-01-18 17:52:00,44.0,40.0,30.30,NW,316,1.0,2.0,86,-99.99,,,-99.99,,2013-01-19 01:52:00,
2013-01-18 18:02:00,43.0,40.0,30.30,NW,316,0.0,0.0,88,-99.99,,,-99.99,,2013-01-19 02:02:00,
2013-01-18 18:12:00,43.0,40.0,30.30,NW,316,0.0,0.0,88,-99.99,,,-99.99,,2013-01-19 02:12:00,
2013-01-18 18:22:00,43.0,40.0,30.30,NW,317,0.0,0.0,88,0.00,,,-99.99,,2013-01-19 02:22:00,
2013-01-18 18:32:00,43.0,40.0,30.30,NW,317,0.0,0.0,88,0.00,,,-99.99,,2013-01-19 02:32:00,
2013-01-18 18:43:00,43.0,40.0,30.30,NW,317,0.0,0.0,88,0.00,,,-99.99,,2013-01-19 02:43:00,
2013-01-18 18:53:00,43.0,40.0,30.30,NW,317,0.0,0.0,88,0.00,,,-99.99,,2013-01-19 02:53:00,
2013-01-18 19:02:00,43.0,40.0,30.30,NW,317,0.0,0.0,88,0.00,,,-99.99,,2013-01-19 03:02:00,